createdAt,value
2023-06-15T00:00:40.134Z,13.51
2023-06-15T00:03:09.845Z,13.49
2023-06-15T00:05:39.665Z,13.40
2023-06-15T00:08:10.774Z,13.30
2023-06-15T00:10:40.152Z,13.18
2023-06-15T00:13:09.403Z,13.21
2023-06-15T00:15:41.378Z,13.18
2023-06-15T00:18:10.899Z,13.17
2023-06-15T00:20:40.669Z,13.08
2023-06-15T00:23:11.258Z,13.02
2023-06-15T00:25:40.622Z,12.99
2023-06-15T00:28:45.913Z,12.99
2023-06-15T00:31:37.430Z,12.88
2023-06-15T00:34:06.626Z,12.74
2023-06-15T00:36:35.855Z,12.63
2023-06-15T00:39:06.564Z,12.60
2023-06-15T00:41:43.168Z,12.53
2023-06-15T00:44:12.865Z,12.31
2023-06-15T00:46:42.132Z,12.36
2023-06-15T00:49:11.903Z,12.36
2023-06-15T00:51:42.221Z,12.49
2023-06-15T00:54:16.086Z,12.45
2023-06-15T00:56:45.578Z,12.39
2023-06-15T00:59:14.821Z,12.48
2023-06-15T01:01:45.851Z,12.46
2023-06-15T01:04:15.044Z,12.38
2023-06-15T01:06:53.098Z,12.35
2023-06-15T01:09:23.737Z,12.39
2023-06-15T01:11:56.577Z,12.29
2023-06-15T01:14:27.891Z,12.20
2023-06-15T01:17:06.524Z,12.21
2023-06-15T01:19:55.169Z,12.20
2023-06-15T01:22:36.904Z,12.25
2023-06-15T01:25:27.924Z,12.20
2023-06-15T01:28:05.058Z,12.25
2023-06-15T01:30:39.620Z,12.19
2023-06-15T01:33:09.307Z,12.18
2023-06-15T01:35:42.522Z,11.94
2023-06-15T01:38:12.538Z,11.85
2023-06-15T01:40:47.150Z,11.67
2023-06-15T01:43:21.910Z,11.58
2023-06-15T01:45:53.681Z,11.63
2023-06-15T01:48:23.348Z,11.70
2023-06-15T01:50:52.863Z,11.61
2023-06-15T01:53:23.939Z,11.51
2023-06-15T01:55:53.454Z,11.47
2023-06-15T01:58:25.131Z,11.52
2023-06-15T02:00:54.790Z,11.42
2023-06-15T02:03:25.008Z,11.38
2023-06-15T02:05:54.450Z,11.33
2023-06-15T02:08:25.151Z,11.43
2023-06-15T02:10:55.705Z,11.45
2023-06-15T02:13:28.573Z,11.40
2023-06-15T02:15:58.176Z,11.33
2023-06-15T02:18:31.334Z,11.18
2023-06-15T02:21:00.925Z,11.01
2023-06-15T02:23:30.148Z,10.93
2023-06-15T02:26:02.580Z,10.81
2023-06-15T02:28:36.723Z,10.93
2023-06-15T02:31:07.360Z,10.94
2023-06-15T02:33:36.802Z,11.00
2023-06-15T02:36:07.712Z,11.05
2023-06-15T02:38:38.451Z,11.15
2023-06-15T02:41:07.707Z,11.13
2023-06-15T02:43:38.759Z,11.07
2023-06-15T02:46:08.205Z,11.11
2023-06-15T02:48:38.953Z,11.02
2023-06-15T02:51:08.698Z,10.93
2023-06-15T02:53:38.208Z,10.89
2023-06-15T02:56:08.272Z,10.81
2023-06-15T02:58:43.222Z,10.62
2023-06-15T03:01:39.363Z,10.59
2023-06-15T03:04:14.714Z,10.68
2023-06-15T03:06:47.608Z,10.73
2023-06-15T03:09:23.597Z,10.71
2023-06-15T03:11:53.007Z,10.63
2023-06-15T03:14:30.027Z,10.59
2023-06-15T03:17:00.509Z,10.51
2023-06-15T03:19:29.757Z,10.24
2023-06-15T03:21:59.644Z,10.23
2023-06-15T03:24:31.368Z,10.31
2023-06-15T03:27:02.936Z,10.48
2023-06-15T03:29:37.897Z,10.56
2023-06-15T03:32:11.780Z,10.50
2023-06-15T03:34:41.413Z,10.43
2023-06-15T03:37:12.628Z,10.55
2023-06-15T03:39:45.310Z,10.72
2023-06-15T03:42:15.123Z,10.71
2023-06-15T03:44:46.009Z,10.73
2023-06-15T03:47:17.486Z,10.65
2023-06-15T03:49:46.793Z,10.57
2023-06-15T03:52:17.168Z,10.40
2023-06-15T03:54:46.643Z,10.36
2023-06-15T03:57:16.361Z,10.30
2023-06-15T03:59:47.561Z,10.30
2023-06-15T04:02:17.200Z,10.30
2023-06-15T04:04:46.729Z,10.33
2023-06-15T04:07:18.373Z,10.37
2023-06-15T04:09:47.588Z,10.48
2023-06-15T04:12:23.693Z,10.62
2023-06-15T04:14:54.346Z,10.52
2023-06-15T04:17:24.910Z,10.39
2023-06-15T04:19:54.126Z,10.29
2023-06-15T04:22:30.676Z,10.22
2023-06-15T04:25:00.040Z,10.30
2023-06-15T04:27:32.045Z,10.31
2023-06-15T04:30:03.024Z,10.46
2023-06-15T04:32:34.188Z,10.63
2023-06-15T04:35:04.967Z,10.91
2023-06-15T04:37:34.620Z,11.03
2023-06-15T04:40:10.845Z,11.25
2023-06-15T04:42:41.773Z,11.43
2023-06-15T04:45:14.134Z,11.73
2023-06-15T04:47:43.647Z,12.20
2023-06-15T04:50:15.446Z,12.77
2023-06-15T04:52:45.889Z,12.83
2023-06-15T04:55:15.621Z,12.97
2023-06-15T04:57:45.209Z,13.32
2023-06-15T05:00:17.854Z,13.65
2023-06-15T05:02:53.381Z,14.23
2023-06-15T05:05:24.477Z,14.51
2023-06-15T05:07:54.719Z,14.99
2023-06-15T05:10:41.285Z,15.46
2023-06-15T05:13:23.025Z,15.14
2023-06-15T05:16:00.012Z,15.72
2023-06-15T05:18:37.265Z,15.74
2023-06-15T05:21:12.317Z,15.56
2023-06-15T05:23:47.252Z,15.27
2023-06-15T05:26:29.825Z,15.74
2023-06-15T05:29:28.198Z,16.78
2023-06-15T05:32:01.115Z,17.23
2023-06-15T05:34:31.799Z,17.16
2023-06-15T05:37:01.048Z,17.47
2023-06-15T05:39:38.629Z,17.95
2023-06-15T05:42:08.716Z,18.02
2023-06-15T05:44:40.365Z,18.43
2023-06-15T05:47:12.874Z,18.36
2023-06-15T05:49:44.270Z,18.16
2023-06-15T05:52:15.989Z,18.92
2023-06-15T05:54:46.459Z,18.38
2023-06-15T05:57:16.964Z,18.30
2023-06-15T05:59:47.926Z,17.92
2023-06-15T06:02:18.509Z,17.62
2023-06-15T06:04:48.623Z,17.50
2023-06-15T06:07:19.351Z,17.69
2023-06-15T06:09:48.781Z,18.70
2023-06-15T06:12:18.499Z,19.41
2023-06-15T06:14:50.315Z,19.94
2023-06-15T06:17:42.963Z,20.02
2023-06-15T06:20:11.397Z,20.06
2023-06-15T06:22:41.175Z,20.62
2023-06-15T06:25:14.459Z,20.64
2023-06-15T06:27:44.268Z,20.89
2023-06-15T06:30:14.109Z,20.78
2023-06-15T06:32:46.129Z,21.32
2023-06-15T06:35:15.649Z,21.43
2023-06-15T06:37:45.207Z,22.05
2023-06-15T06:40:15.170Z,22.24
2023-06-15T06:42:44.496Z,21.92
2023-06-15T06:45:16.628Z,21.89
2023-06-15T06:47:47.449Z,22.24
2023-06-15T06:50:20.005Z,22.37
2023-06-15T06:52:49.258Z,21.96
2023-06-15T06:55:18.870Z,22.21
2023-06-15T06:57:48.325Z,22.03
2023-06-15T07:00:18.381Z,22.08
2023-06-15T07:02:48.981Z,22.32
2023-06-15T07:05:18.633Z,22.76
2023-06-15T07:07:48.153Z,23.13
2023-06-15T07:10:17.454Z,23.11
2023-06-15T07:12:46.589Z,22.99
2023-06-15T07:15:16.781Z,22.91
2023-06-15T07:17:46.194Z,23.50
2023-06-15T07:20:16.788Z,23.00
2023-06-15T07:22:45.969Z,23.43
2023-06-15T07:25:15.294Z,23.44
2023-06-15T07:27:44.651Z,24.03
2023-06-15T07:30:16.010Z,23.22
2023-06-15T07:32:45.440Z,23.95
2023-06-15T07:35:18.535Z,23.84
2023-06-15T07:37:50.004Z,23.81
2023-06-15T07:40:19.771Z,24.26
2023-06-15T07:42:49.128Z,24.74
2023-06-15T07:45:18.323Z,24.98
2023-06-15T07:47:47.565Z,24.97
2023-06-15T07:50:21.115Z,24.68
2023-06-15T07:52:52.193Z,24.31
2023-06-15T07:55:21.489Z,25.11
2023-06-15T07:57:50.646Z,23.69
2023-06-15T08:00:21.690Z,24.32
2023-06-15T08:03:01.339Z,23.55
2023-06-15T08:05:32.317Z,23.71
2023-06-15T08:08:01.470Z,23.87
2023-06-15T08:10:35.282Z,25.15
2023-06-15T08:13:04.411Z,25.61
2023-06-15T08:15:33.728Z,24.88
2023-06-15T08:18:04.146Z,25.07
2023-06-15T08:20:35.850Z,26.08
2023-06-15T08:23:05.242Z,25.66
2023-06-15T08:25:35.682Z,25.40
2023-06-15T08:28:05.064Z,25.06
2023-06-15T08:30:34.554Z,25.85
2023-06-15T08:33:03.993Z,25.59
2023-06-15T08:35:35.178Z,25.18
2023-06-15T08:38:05.550Z,24.74
2023-06-15T08:40:34.799Z,24.19
2023-06-15T08:43:05.826Z,23.76
2023-06-15T08:45:43.211Z,23.43
2023-06-15T08:48:16.184Z,23.80
2023-06-15T08:50:52.465Z,23.21
2023-06-15T08:53:24.189Z,23.10
2023-06-15T08:55:54.821Z,23.14
2023-06-15T08:58:24.581Z,22.92
2023-06-15T09:00:55.772Z,22.59
2023-06-15T09:03:26.070Z,22.65
2023-06-15T09:05:57.099Z,22.58
2023-06-15T09:08:27.210Z,22.40
2023-06-15T09:11:09.455Z,22.19
2023-06-15T09:13:38.761Z,22.11
2023-06-15T09:16:13.497Z,22.19
2023-06-15T09:18:47.225Z,21.94
2023-06-15T09:21:21.891Z,22.43
2023-06-15T09:23:51.860Z,22.72
2023-06-15T09:26:25.223Z,22.98
2023-06-15T09:28:57.453Z,23.35
2023-06-15T09:31:34.262Z,23.17
2023-06-15T09:34:04.719Z,23.50
2023-06-15T09:36:45.949Z,24.16
2023-06-15T09:39:16.744Z,24.07
2023-06-15T09:41:58.271Z,24.14
2023-06-15T09:44:28.502Z,23.42
2023-06-15T09:47:03.566Z,23.40
2023-06-15T09:49:33.352Z,23.23
2023-06-15T09:52:03.958Z,23.17
2023-06-15T09:54:33.697Z,23.00
2023-06-15T09:57:03.505Z,22.93
2023-06-15T09:59:35.397Z,22.87
2023-06-15T10:02:10.025Z,22.66
2023-06-15T10:04:41.750Z,22.79
2023-06-15T10:07:14.758Z,23.23
2023-06-15T10:09:50.418Z,23.40
2023-06-15T10:12:22.925Z,23.30
2023-06-15T10:14:57.815Z,22.76
2023-06-15T10:17:32.254Z,22.95
2023-06-15T10:20:10.383Z,23.38
2023-06-15T10:22:46.304Z,23.15
2023-06-15T10:25:18.090Z,23.25
2023-06-15T10:27:47.557Z,23.51
2023-06-15T10:30:26.206Z,23.51
2023-06-15T10:32:59.720Z,23.70
2023-06-15T10:35:36.200Z,23.98
2023-06-15T10:38:18.311Z,23.91
2023-06-15T10:40:50.928Z,24.95
2023-06-15T10:43:20.961Z,24.09
2023-06-15T10:45:50.635Z,23.95
2023-06-15T10:48:24.735Z,23.76
2023-06-15T10:50:54.274Z,23.48
2023-06-15T10:53:26.865Z,23.81
2023-06-15T10:55:57.445Z,23.77
2023-06-15T10:58:28.823Z,23.44
2023-06-15T11:01:10.105Z,23.50
2023-06-15T11:03:43.300Z,23.50
2023-06-15T11:06:19.445Z,23.60
2023-06-15T11:08:56.542Z,23.91
2023-06-15T11:11:32.992Z,23.61
2023-06-15T11:14:05.395Z,23.38
2023-06-15T11:16:37.333Z,23.93
2023-06-15T11:19:28.676Z,23.66
2023-06-15T11:22:02.706Z,23.82
2023-06-15T11:24:41.544Z,24.22
2023-06-15T11:27:13.573Z,23.29
2023-06-15T11:29:44.460Z,23.91
2023-06-15T11:32:16.053Z,24.81
2023-06-15T11:34:45.229Z,23.97
2023-06-15T11:37:17.530Z,24.51
2023-06-15T11:39:48.428Z,25.05
2023-06-15T11:42:27.025Z,26.08
2023-06-15T11:44:57.868Z,25.94
2023-06-15T11:47:36.581Z,24.92
2023-06-15T11:50:07.353Z,25.26
2023-06-15T11:52:43.955Z,26.04
2023-06-15T11:55:17.795Z,26.26
2023-06-15T11:57:46.993Z,26.03
2023-06-15T12:00:17.530Z,26.67
2023-06-15T12:02:46.999Z,26.50
2023-06-15T12:05:18.371Z,26.93
2023-06-15T12:07:48.260Z,26.99
2023-06-15T12:10:19.952Z,27.72
2023-06-15T12:12:51.380Z,25.94
2023-06-15T12:15:22.225Z,26.59
2023-06-15T12:17:51.880Z,27.39
2023-06-15T12:20:21.501Z,26.19
2023-06-15T12:22:51.688Z,25.97
2023-06-15T12:25:42.974Z,26.69
2023-06-15T12:28:23.445Z,26.41
2023-06-15T12:30:54.353Z,25.30
2023-06-15T12:33:30.436Z,24.86
2023-06-15T12:36:01.737Z,25.08
2023-06-15T12:38:32.090Z,24.99
2023-06-15T12:41:03.197Z,24.98
2023-06-15T12:43:32.867Z,24.78
2023-06-15T12:46:03.189Z,24.69
2023-06-15T12:48:33.371Z,24.70
2023-06-15T12:51:03.763Z,24.51
2023-06-15T12:53:33.382Z,24.62
2023-06-15T12:56:04.272Z,24.32
2023-06-15T12:58:33.747Z,24.05
2023-06-15T13:01:03.407Z,23.76
2023-06-15T13:03:33.059Z,24.02
2023-06-15T13:06:02.286Z,24.19
2023-06-15T13:08:31.956Z,24.20
2023-06-15T13:11:01.479Z,24.46
2023-06-15T13:13:32.285Z,25.65
2023-06-15T13:16:04.173Z,25.37
2023-06-15T13:18:33.437Z,25.42
2023-06-15T13:21:02.774Z,26.69
2023-06-15T13:23:32.559Z,26.59
2023-06-15T13:26:01.774Z,26.67
2023-06-15T13:28:32.647Z,27.51
2023-06-15T13:31:02.022Z,26.91
2023-06-15T13:33:31.494Z,25.87
2023-06-15T13:36:01.099Z,26.41
2023-06-15T13:38:32.350Z,25.76
2023-06-15T13:41:01.544Z,24.91
2023-06-15T13:43:32.519Z,24.50
2023-06-15T13:46:02.177Z,24.64
2023-06-15T13:48:33.066Z,24.63
2023-06-15T13:51:02.330Z,24.52
2023-06-15T13:53:32.495Z,24.63
2023-06-15T13:56:03.289Z,24.39
2023-06-15T13:58:35.670Z,24.08
2023-06-15T14:01:05.421Z,25.51
2023-06-15T14:03:37.106Z,25.63
2023-06-15T14:06:06.731Z,24.99
2023-06-15T14:08:36.318Z,24.67
2023-06-15T14:11:05.814Z,25.18
2023-06-15T14:13:39.002Z,25.60
2023-06-15T14:16:08.510Z,25.30
2023-06-15T14:18:38.671Z,24.69
2023-06-15T14:21:07.923Z,24.60
2023-06-15T14:23:37.188Z,23.99
2023-06-15T14:26:06.425Z,24.17
2023-06-15T14:28:37.171Z,24.57
2023-06-15T14:31:06.381Z,24.53
2023-06-15T14:33:35.716Z,24.74
2023-06-15T14:36:05.166Z,24.55
2023-06-15T14:38:34.652Z,24.49
2023-06-15T14:41:04.243Z,24.29
2023-06-15T14:43:33.392Z,24.50
2023-06-15T14:46:04.035Z,24.19
2023-06-15T14:51:03.414Z,23.55
2023-06-15T14:53:32.921Z,23.61
2023-06-15T14:56:02.719Z,23.68
2023-06-15T14:58:33.867Z,23.85
2023-06-15T15:01:05.667Z,24.00
2023-06-15T15:03:35.654Z,24.58
2023-06-15T15:06:05.247Z,24.17
2023-06-15T15:08:44.045Z,24.04
2023-06-15T15:11:13.465Z,23.99
2023-06-15T15:13:42.965Z,24.53
2023-06-15T15:16:13.733Z,25.17
2023-06-15T15:18:43.077Z,24.89
2023-06-15T15:21:12.671Z,24.26
2023-06-15T15:23:42.833Z,24.28
2023-06-15T15:26:12.375Z,23.77
2023-06-15T15:28:43.225Z,24.25
2023-06-15T15:31:17.242Z,24.16
2023-06-15T15:33:47.703Z,24.48
2023-06-15T15:36:17.396Z,24.29
2023-06-15T15:38:46.692Z,24.28
2023-06-15T15:41:17.523Z,23.86
2023-06-15T15:43:46.910Z,23.16
2023-06-15T15:46:17.937Z,23.01
2023-06-15T15:48:47.708Z,22.86
2023-06-15T15:51:18.162Z,24.18
2023-06-15T15:53:49.810Z,24.16
2023-06-15T15:56:19.180Z,24.35
2023-06-15T15:58:48.436Z,24.86
2023-06-15T16:04:13.579Z,24.72
2023-06-15T16:06:42.826Z,24.22
2023-06-15T16:09:15.563Z,24.79
2023-06-15T16:11:45.504Z,25.21
2023-06-15T16:14:14.801Z,24.55
2023-06-15T16:16:45.610Z,24.86
2023-06-15T16:19:15.269Z,24.85
2023-06-15T16:21:44.882Z,24.93
2023-06-15T16:24:14.043Z,25.30
2023-06-15T16:26:43.539Z,24.96
2023-06-15T16:29:12.997Z,25.14
2023-06-15T16:31:42.147Z,24.59
2023-06-15T16:34:15.330Z,24.28
2023-06-15T16:36:44.625Z,25.37
2023-06-15T16:39:38.417Z,24.84
2023-06-15T16:42:08.328Z,24.60
2023-06-15T16:44:38.120Z,25.55
2023-06-15T16:47:08.526Z,25.13
2023-06-15T16:49:40.828Z,24.26
2023-06-15T16:52:35.758Z,23.56
2023-06-15T16:55:05.982Z,23.59
2023-06-15T16:57:36.870Z,23.48
2023-06-15T17:00:08.678Z,23.63
2023-06-15T17:02:38.375Z,23.69
2023-06-15T17:05:10.895Z,23.57
2023-06-15T17:07:42.904Z,23.50
2023-06-15T17:10:12.639Z,23.54
2023-06-15T17:12:42.083Z,23.38
2023-06-15T17:15:12.186Z,23.61
2023-06-15T17:17:41.274Z,23.79
2023-06-15T17:20:13.048Z,24.00
2023-06-15T17:22:42.813Z,23.91
2023-06-15T17:25:13.481Z,24.57
2023-06-15T17:27:43.012Z,24.51
2023-06-15T17:30:13.610Z,24.68
2023-06-15T17:32:43.154Z,24.39
2023-06-15T17:35:15.914Z,23.98
2023-06-15T17:37:49.366Z,23.86
2023-06-15T17:40:19.257Z,23.80
2023-06-15T17:42:49.451Z,24.24
2023-06-15T17:45:19.340Z,24.16
2023-06-15T17:47:51.381Z,23.37
2023-06-15T17:50:23.553Z,23.41
2023-06-15T17:52:53.136Z,23.36
2023-06-15T17:55:23.521Z,22.86
2023-06-15T17:57:54.810Z,23.10
2023-06-15T18:00:24.818Z,23.11
2023-06-15T18:02:54.485Z,23.47
2023-06-15T18:05:29.203Z,23.35
2023-06-15T18:07:58.842Z,22.97
2023-06-15T18:10:28.585Z,22.97
2023-06-15T18:13:00.206Z,22.69
2023-06-15T18:15:33.439Z,22.46
2023-06-15T18:18:05.460Z,22.26
2023-06-15T18:20:40.293Z,22.14
2023-06-15T18:23:10.235Z,22.12
2023-06-15T18:25:40.055Z,21.92
2023-06-15T18:28:11.164Z,21.71
2023-06-15T18:30:42.159Z,21.65
2023-06-15T18:33:12.137Z,21.56
2023-06-15T18:35:45.280Z,21.54
2023-06-15T18:38:17.948Z,21.48
2023-06-15T18:40:47.267Z,21.35
2023-06-15T18:43:17.876Z,21.26
2023-06-15T18:45:47.262Z,21.24
2023-06-15T18:48:16.717Z,21.19
2023-06-15T18:50:47.624Z,21.04
2023-06-15T18:53:16.831Z,20.91
2023-06-15T18:55:50.362Z,20.78
2023-06-15T18:58:21.703Z,20.74
2023-06-15T19:00:54.120Z,20.61
2023-06-15T19:03:23.579Z,20.52
2023-06-15T19:05:55.491Z,20.40
2023-06-15T19:08:25.246Z,20.34
2023-06-15T19:10:56.345Z,20.27
2023-06-15T19:13:31.848Z,20.23
2023-06-15T19:16:02.935Z,20.17
2023-06-15T19:18:33.572Z,20.09
2023-06-15T19:21:06.010Z,20.05
2023-06-15T19:23:36.862Z,19.96
2023-06-15T19:26:15.041Z,19.91
2023-06-15T19:28:47.349Z,19.83
2023-06-15T19:31:18.984Z,19.73
2023-06-15T19:33:49.306Z,19.81
2023-06-15T19:36:22.057Z,19.79
2023-06-15T19:39:01.890Z,19.66
2023-06-15T19:41:35.595Z,19.59
2023-06-15T19:44:05.449Z,19.41
2023-06-15T19:46:35.463Z,19.29
2023-06-15T19:49:05.425Z,19.17
2023-06-15T19:51:37.750Z,19.02
2023-06-15T19:54:07.557Z,18.94
2023-06-15T19:56:41.284Z,18.86
2023-06-15T19:59:13.699Z,18.80
2023-06-15T20:01:45.706Z,18.67
2023-06-15T20:04:15.698Z,18.61
2023-06-15T20:06:47.075Z,18.47
2023-06-15T20:09:17.676Z,18.34
2023-06-15T20:11:47.643Z,18.31
2023-06-15T20:14:18.907Z,18.30
2023-06-15T20:16:48.922Z,18.32
2023-06-15T20:19:20.823Z,18.32
2023-06-15T20:21:53.056Z,18.32
2023-06-15T20:24:23.362Z,18.26
2023-06-15T20:26:52.963Z,18.31
2023-06-15T20:29:24.117Z,18.30
2023-06-15T20:31:53.955Z,18.28
2023-06-15T20:34:23.828Z,18.31
2023-06-15T20:36:57.055Z,18.23
2023-06-15T20:39:26.754Z,18.26
2023-06-15T20:41:56.189Z,18.27
2023-06-15T20:44:27.231Z,18.28
2023-06-15T20:46:57.657Z,18.04
2023-06-15T20:49:26.953Z,17.94
2023-06-15T20:51:58.058Z,17.79
2023-06-15T20:54:27.746Z,17.66
2023-06-15T20:56:59.009Z,17.50
2023-06-15T20:59:28.299Z,17.32
2023-06-15T21:01:58.934Z,17.19
2023-06-15T21:04:28.685Z,17.02
2023-06-15T21:06:59.581Z,16.85
2023-06-15T21:09:30.127Z,16.75
2023-06-15T21:11:59.413Z,16.79
2023-06-15T21:14:28.649Z,16.86
2023-06-15T21:16:58.190Z,16.92
2023-06-15T21:19:28.835Z,16.94
2023-06-15T21:22:01.616Z,17.00
2023-06-15T21:24:33.435Z,17.02
2023-06-15T21:27:03.320Z,17.04
2023-06-15T21:29:32.684Z,17.15
2023-06-15T21:32:03.398Z,17.24
2023-06-15T21:34:32.862Z,17.18
2023-06-15T21:37:06.601Z,17.15
2023-06-15T21:39:36.320Z,17.09
2023-06-15T21:42:15.987Z,17.12
2023-06-15T21:44:49.166Z,17.17
2023-06-15T21:47:18.680Z,17.26
2023-06-15T21:49:47.939Z,17.24
2023-06-15T21:52:19.440Z,17.29
2023-06-15T21:54:49.465Z,17.18
2023-06-15T21:57:23.346Z,17.05
2023-06-15T21:59:54.023Z,16.86
2023-06-15T22:02:32.996Z,16.64
2023-06-15T22:05:03.029Z,16.47
2023-06-15T22:07:36.788Z,16.29
2023-06-15T22:10:07.736Z,16.17
2023-06-15T22:12:38.535Z,16.07
2023-06-15T22:15:10.583Z,16.02
2023-06-15T22:17:42.560Z,16.01
2023-06-15T22:20:15.327Z,15.95
2023-06-15T22:22:46.552Z,15.99
2023-06-15T22:25:16.210Z,15.92
2023-06-15T22:27:45.984Z,15.83
2023-06-15T22:30:17.236Z,15.83
2023-06-15T22:32:53.188Z,15.88
2023-06-15T22:35:24.340Z,15.85
2023-06-15T22:37:59.049Z,15.87
2023-06-15T22:40:30.078Z,15.90
2023-06-15T22:42:59.511Z,15.85
2023-06-15T22:45:29.006Z,15.83
2023-06-15T22:48:01.085Z,15.60
2023-06-15T22:50:33.266Z,15.49
2023-06-15T22:53:04.790Z,15.37
2023-06-15T22:55:34.114Z,15.42
2023-06-15T22:58:03.410Z,15.49
2023-06-15T23:00:32.837Z,15.40
2023-06-15T23:03:08.661Z,15.36
2023-06-15T23:05:40.326Z,15.35
2023-06-15T23:08:22.416Z,15.49
2023-06-15T23:10:54.101Z,15.63
2023-06-15T23:13:23.949Z,15.64
2023-06-15T23:15:56.688Z,15.77
2023-06-15T23:18:28.229Z,15.89
2023-06-15T23:21:00.633Z,15.99
2023-06-15T23:23:38.586Z,16.07
2023-06-15T23:26:09.714Z,16.12
2023-06-15T23:28:40.734Z,16.27
2023-06-15T23:31:10.405Z,16.30
2023-06-15T23:33:40.204Z,16.30
2023-06-15T23:36:15.124Z,16.33
2023-06-15T23:38:47.304Z,16.45
2023-06-15T23:41:22.717Z,16.59
2023-06-15T23:43:54.071Z,16.53
2023-06-15T23:46:24.171Z,16.56
2023-06-15T23:48:54.325Z,16.70
2023-06-15T23:51:24.094Z,16.72
2023-06-15T23:53:55.300Z,16.77
2023-06-15T23:56:26.724Z,16.74
2023-06-15T23:58:58.389Z,16.62
